Time;durP1;ratioP1;P1;durP2;ratioP2;P2;SDS_P1;SDS_P2;PMS_P1;PMS_P2;Temp;Humidity;BMP_temperature;BMP_pressure;BME280_temperature;BME280_humidity;BME280_pressure;Samples;Min_cycle;Max_cycle;Signal;HPM_P1;HPM_P2
2022/01/25 00:28:18;;;;;;;16.03;10.90;;;;;;;;;;5075884;28;20773;-65
2022/01/25 00:30:59;;;;;;;19.67;11.83;;;;;;;;;;5075646;28;20463;-64
2022/01/25 00:33:33;;;;;;;21.10;12.00;;;;;;;;;;5057797;28;20467;-65
2022/01/25 00:35:59;;;;;;;20.10;11.90;;;;;;;;;;5075727;28;20973;-65
2022/01/25 00:38:26;;;;;;;19.50;10.80;;;;;;;;;;5075714;28;20402;-64
2022/01/25 00:40:52;;;;;;;17.40;11.10;;;;;;;;;;5075497;28;20402;-65
2022/01/25 00:43:19;;;;;;;19.90;11.43;;;;;;;;;;5074895;28;20401;-66
2022/01/25 00:45:45;;;;;;;18.03;11.23;;;;;;;;;;5075391;28;20495;-67
2022/01/25 00:48:18;;;;;;;20.07;10.83;;;;;;;;;;5075444;28;20402;-65
2022/01/25 00:50:45;;;;;;;16.60;11.30;;;;;;;;;;5075510;28;20456;-66
2022/01/25 00:55:56;;;;;;;18.63;10.87;;;;;;;;;;5075421;28;20550;-68
2022/01/25 00:58:23;;;;;;;17.20;10.67;;;;;;;;;;5075253;28;20406;-64
2022/01/25 01:00:49;;;;;;;15.70;9.77;;;;;;;;;;5074899;28;20462;-69
2022/01/25 01:03:15;;;;;;;18.80;11.47;;;;;;;;;;5075302;28;20449;-63
2022/01/25 01:05:42;;;;;;;20.97;11.87;;;;;;;;;;5057031;28;20923;-67
2022/01/25 01:08:08;;;;;;;18.20;10.60;;;;;;;;;;5075011;28;20426;-69
2022/01/25 01:10:34;;;;;;;21.03;11.43;;;;;;;;;;5074835;28;20421;-65
2022/01/25 01:15:35;;;;;;;20.47;11.80;;;;;;;;;;5074925;28;20461;-65
2022/01/25 01:29:19;;;;;;;16.50;10.40;;;;;;;;;;5074812;28;20451;-65
2022/01/25 01:39:49;;;;;;;16.47;11.07;;;;;;;;;;5074410;28;20393;-66
2022/01/25 01:47:48;;;;;;;17.03;10.43;;;;;;;;;;5032992;28;20406;-68
2022/01/25 01:50:26;;;;;;;17.03;10.03;;;;;;;;;;5074093;28;20458;-69
2022/01/25 01:52:52;;;;;;;16.87;10.40;;;;;;;;;;5073617;28;20549;-68
2022/01/25 01:55:19;;;;;;;18.73;11.47;;;;;;;;;;5073434;28;20789;-64
2022/01/25 01:57:46;;;;;;;18.63;11.20;;;;;;;;;;5074125;28;20398;-69
2022/01/25 02:00:13;;;;;;;18.03;11.00;;;;;;;;;;5073946;28;20747;-68
2022/01/25 02:02:39;;;;;;;17.97;11.67;;;;;;;;;;5073805;28;20484;-67
2022/01/25 02:05:05;;;;;;;18.80;11.50;;;;;;;;;;5073872;28;20413;-68
2022/01/25 02:07:31;;;;;;;20.70;12.27;;;;;;;;;;5073899;28;20428;-69
2022/01/25 02:09:57;;;;;;;21.10;12.50;;;;;;;;;;5055815;28;20925;-67
2022/01/25 02:12:23;;;;;;;20.23;11.53;;;;;;;;;;5073827;28;21117;-66
2022/01/25 02:14:51;;;;;;;23.60;12.80;;;;;;;;;;5073602;28;20480;-65
2022/01/25 02:22:52;;;;;;;19.40;12.53;;;;;;;;;;5073483;28;20405;-63
2022/01/25 02:25:19;;;;;;;17.60;11.47;;;;;;;;;;5073503;28;20401;-65
2022/01/25 02:27:45;;;;;;;19.33;13.47;;;;;;;;;;5073506;28;20402;-68
2022/01/25 02:30:11;;;;;;;20.63;12.60;;;;;;;;;;5073429;28;20454;-64
2022/01/25 02:32:37;;;;;;;17.40;11.73;;;;;;;;;;5073463;28;20409;-64
2022/01/25 02:35:04;;;;;;;18.77;12.13;;;;;;;;;;5073344;28;20499;-64
2022/01/25 02:37:30;;;;;;;21.63;13.60;;;;;;;;;;5073409;28;20426;-65
2022/01/25 02:39:56;;;;;;;20.57;13.90;;;;;;;;;;5073401;28;20405;-63
2022/01/25 02:42:26;;;;;;;19.97;13.10;;;;;;;;;;5073290;28;20789;-65
2022/01/25 02:44:52;;;;;;;24.30;12.93;;;;;;;;;;5072866;28;20501;-64
2022/01/25 02:50:04;;;;;;;22.67;13.30;;;;;;;;;;5073516;28;20813;-66
2022/01/25 02:52:31;;;;;;;23.50;14.17;;;;;;;;;;5073245;28;20481;-64
2022/01/25 02:54:57;;;;;;;22.77;13.57;;;;;;;;;;5073176;28;20929;-67
2022/01/25 02:57:23;;;;;;;22.40;13.00;;;;;;;;;;5072958;28;20988;-65
2022/01/25 02:59:49;;;;;;;23.30;14.43;;;;;;;;;;5073076;28;20813;-64
2022/01/25 03:02:16;;;;;;;23.47;14.53;;;;;;;;;;5072904;28;20484;-64
2022/01/25 03:04:42;;;;;;;23.10;13.63;;;;;;;;;;5072569;28;20987;-65
2022/01/25 03:07:09;;;;;;;24.07;13.80;;;;;;;;;;5072963;28;20923;-63
2022/01/25 03:09:35;;;;;;;23.30;14.00;;;;;;;;;;5073041;28;20484;-66
2022/01/25 03:12:05;;;;;;;25.10;15.13;;;;;;;;;;5073024;28;20394;-65
2022/01/25 03:14:33;;;;;;;21.93;13.40;;;;;;;;;;5072949;28;20454;-64
2022/01/25 03:22:00;;;;;;;24.53;14.40;;;;;;;;;;5072895;28;20880;-66
2022/01/25 03:24:26;;;;;;;24.80;14.57;;;;;;;;;;5072805;28;20412;-65
2022/01/25 03:26:52;;;;;;;26.47;15.20;;;;;;;;;;5072824;28;20403;-65
2022/01/25 03:29:19;;;;;;;23.40;14.87;;;;;;;;;;5072933;28;20413;-68
2022/01/25 03:31:45;;;;;;;21.67;13.87;;;;;;;;;;5072701;28;20892;-69
2022/01/25 03:34:11;;;;;;;22.17;13.60;;;;;;;;;;5072711;28;20409;-69
2022/01/25 03:36:37;;;;;;;23.90;14.70;;;;;;;;;;5072894;28;20491;-68
2022/01/25 03:39:06;;;;;;;26.67;14.53;;;;;;;;;;5072842;28;20406;-67
2022/01/25 03:41:32;;;;;;;24.17;14.60;;;;;;;;;;5072753;28;20444;-68
2022/01/25 03:43:58;;;;;;;26.20;14.90;;;;;;;;;;5072582;28;20446;-67
2022/01/25 03:47:11;;;;;;;23.27;13.87;;;;;;;;;;5072700;28;20416;-69
2022/01/25 03:51:59;;;;;;;27.50;16.00;;;;;;;;;;5072960;28;20807;-69
2022/01/25 03:54:25;;;;;;;28.90;15.43;;;;;;;;;;5072493;28;20400;-69
2022/01/25 03:56:51;;;;;;;25.57;15.53;;;;;;;;;;5072640;28;20420;-69
2022/01/25 03:59:17;;;;;;;29.17;15.67;;;;;;;;;;5072594;28;20398;-68
2022/01/25 04:01:43;;;;;;;28.57;15.27;;;;;;;;;;5072221;28;20572;-69
2022/01/25 04:04:14;;;;;;;29.40;15.27;;;;;;;;;;5072373;28;20437;-68
2022/01/25 04:06:43;;;;;;;29.30;15.90;;;;;;;;;;5072529;28;20390;-68
2022/01/25 04:09:09;;;;;;;24.80;14.57;;;;;;;;;;5072533;28;20826;-68
2022/01/25 04:11:36;;;;;;;22.33;14.40;;;;;;;;;;5072401;28;20400;-64
2022/01/25 04:14:02;;;;;;;28.93;15.57;;;;;;;;;;5072296;28;20903;-66
2022/01/25 04:16:33;;;;;;;29.67;15.87;;;;;;;;;;5072484;28;20833;-65
2022/01/25 04:26:36;;;;;;;27.97;16.43;;;;;;;;;;5075957;28;20408;-67
2022/01/25 04:29:02;;;;;;;24.77;15.47;;;;;;;;;;5075835;28;20751;-67
2022/01/25 04:31:28;;;;;;;23.43;14.67;;;;;;;;;;5075687;28;20501;-64
2022/01/25 04:51:04;;;;;;;32.78;16.65;;;;;;;;;;5075563;28;20180;-68
2022/01/25 04:53:44;;;;;;;31.60;16.13;;;;;;;;;;5075428;28;20178;-68
2022/01/25 04:59:14;;;;;;;23.50;15.13;;;;;;;;;;5057829;28;20413;-67
2022/01/25 05:01:41;;;;;;;26.00;14.77;;;;;;;;;;5075078;28;20238;-67
2022/01/25 05:04:24;;;;;;;27.17;15.55;;;;;;;;;;5075133;28;20472;-63
2022/01/25 05:06:53;;;;;;;24.80;15.57;;;;;;;;;;5075178;28;20186;-63
2022/01/25 05:09:20;;;;;;;29.87;16.20;;;;;;;;;;5057061;28;20423;-63
2022/01/25 05:11:49;;;;;;;24.20;14.80;;;;;;;;;;5075079;28;20506;-63
2022/01/25 05:14:23;;;;;;;28.50;15.10;;;;;;;;;;5074991;28;20421;-64
2022/01/25 05:16:56;;;;;;;29.00;15.47;;;;;;;;;;5074997;28;20270;-66
2022/01/25 05:22:29;;;;;;;28.02;15.65;;;;;;;;;;5036920;28;20545;-65
2022/01/25 05:24:55;;;;;;;27.17;15.00;;;;;;;;;;5074870;28;20624;-65
2022/01/25 05:27:23;;;;;;;28.92;17.45;;;;;;;;;;5074607;28;20175;-66
2022/01/25 05:29:49;;;;;;;29.25;16.13;;;;;;;;;;5074626;28;20225;-65
2022/01/25 05:32:15;;;;;;;25.23;14.23;;;;;;;;;;5074569;28;20563;-64
2022/01/25 05:34:41;;;;;;;27.80;15.15;;;;;;;;;;5074588;28;20469;-64
2022/01/25 05:37:08;;;;;;;29.97;16.17;;;;;;;;;;5074483;28;20189;-64
2022/01/25 05:39:36;;;;;;;26.80;15.43;;;;;;;;;;5074385;28;20406;-64
2022/01/25 05:44:43;;;;;;;25.03;14.40;;;;;;;;;;5074376;28;20425;-65
2022/01/25 05:47:13;;;;;;;27.67;15.17;;;;;;;;;;5074399;28;20636;-64
2022/01/25 05:49:40;;;;;;;27.40;16.50;;;;;;;;;;5074501;28;20409;-64
2022/01/25 05:52:07;;;;;;;29.43;16.53;;;;;;;;;;5074147;28;20489;-65
2022/01/25 05:54:33;;;;;;;30.50;16.53;;;;;;;;;;5074157;28;20915;-64
2022/01/25 05:56:59;;;;;;;26.57;15.60;;;;;;;;;;5074182;28;20442;-65
2022/01/25 05:59:25;;;;;;;26.57;15.77;;;;;;;;;;5074083;28;20501;-65
2022/01/25 06:01:52;;;;;;;30.97;15.80;;;;;;;;;;5073881;28;20499;-64
2022/01/25 06:04:18;;;;;;;29.47;16.30;;;;;;;;;;5073913;28;20405;-64
2022/01/25 06:06:44;;;;;;;26.30;14.70;;;;;;;;;;5074018;28;20419;-65
2022/01/25 06:09:10;;;;;;;22.90;13.53;;;;;;;;;;5073990;28;20411;-66
2022/01/25 06:11:37;;;;;;;25.57;14.93;;;;;;;;;;5073887;28;20445;-65
2022/01/25 06:14:03;;;;;;;21.07;13.60;;;;;;;;;;5073843;28;20825;-69
2022/01/25 06:16:29;;;;;;;23.43;13.57;;;;;;;;;;5073702;28;20465;-66
2022/01/25 06:18:56;;;;;;;21.80;12.97;;;;;;;;;;5055932;28;20422;-65
2022/01/25 06:21:22;;;;;;;23.00;13.57;;;;;;;;;;5073589;28;20419;-66
2022/01/25 06:23:48;;;;;;;24.23;14.87;;;;;;;;;;5055598;28;20444;-65
2022/01/25 06:26:14;;;;;;;26.43;14.50;;;;;;;;;;5073626;28;20406;-66
2022/01/25 06:28:40;;;;;;;25.40;13.57;;;;;;;;;;5073640;28;20418;-64
2022/01/25 06:31:07;;;;;;;22.33;12.87;;;;;;;;;;5073341;28;20405;-65
2022/01/25 06:33:33;;;;;;;21.13;13.13;;;;;;;;;;5073566;28;20406;-64
2022/01/25 06:36:00;;;;;;;26.37;14.30;;;;;;;;;;5073321;28;20489;-64
2022/01/25 06:38:28;;;;;;;26.43;14.10;;;;;;;;;;5073387;28;20417;-64
2022/01/25 06:40:54;;;;;;;22.90;13.93;;;;;;;;;;5054781;28;20425;-65
2022/01/25 06:43:20;;;;;;;24.97;14.10;;;;;;;;;;5073299;28;20765;-66
2022/01/25 06:45:55;;;;;;;25.13;13.20;;;;;;;;;;5073321;28;20857;-64
2022/01/25 06:48:21;;;;;;;25.73;13.97;;;;;;;;;;5073348;28;20389;-66
2022/01/25 06:50:47;;;;;;;25.57;15.50;;;;;;;;;;5073267;28;20414;-65
2022/01/25 06:53:13;;;;;;;25.10;14.13;;;;;;;;;;5073204;28;20762;-65
2022/01/25 06:55:40;;;;;;;26.40;14.50;;;;;;;;;;5073121;28;20466;-67
2022/01/25 06:58:06;;;;;;;23.00;13.87;;;;;;;;;;5073120;28;20418;-63
2022/01/25 07:00:32;;;;;;;26.67;14.23;;;;;;;;;;5072900;28;20407;-64
2022/01/25 07:02:58;;;;;;;25.37;14.40;;;;;;;;;;5073047;28;20512;-65
2022/01/25 07:05:24;;;;;;;25.90;14.53;;;;;;;;;;5073078;28;20427;-65
2022/01/25 07:07:51;;;;;;;24.57;14.67;;;;;;;;;;5072906;28;20405;-70
2022/01/25 07:10:17;;;;;;;23.17;14.00;;;;;;;;;;5072917;28;20536;-69
2022/01/25 07:12:44;;;;;;;38.20;16.37;;;;;;;;;;5073103;28;20908;-70
2022/01/25 07:15:11;;;;;;;23.40;14.40;;;;;;;;;;5072814;28;20473;-70
2022/01/25 07:17:37;;;;;;;20.80;13.10;;;;;;;;;;5054983;28;20421;-70
2022/01/25 07:20:06;;;;;;;29.50;13.60;;;;;;;;;;5072938;28;20398;-69
2022/01/25 07:22:32;;;;;;;23.70;14.37;;;;;;;;;;5054783;28;20416;-70
2022/01/25 07:24:58;;;;;;;25.33;13.80;;;;;;;;;;5072923;28;20510;-68
2022/01/25 07:27:24;;;;;;;23.57;15.20;;;;;;;;;;5054927;28;20872;-70
2022/01/25 07:29:50;;;;;;;29.03;14.80;;;;;;;;;;5072852;28;20564;-67
2022/01/25 07:32:16;;;;;;;25.10;12.53;;;;;;;;;;5072801;28;20445;-68
2022/01/25 07:34:42;;;;;;;26.30;14.80;;;;;;;;;;5072791;28;20595;-68
2022/01/25 07:37:08;;;;;;;25.10;14.23;;;;;;;;;;5072776;28;20411;-69
2022/01/25 07:39:34;;;;;;;25.77;13.87;;;;;;;;;;5072719;28;20456;-69
2022/01/25 07:42:00;;;;;;;28.60;15.03;;;;;;;;;;5072703;28;20413;-68
2022/01/25 07:44:30;;;;;;;29.10;14.73;;;;;;;;;;5072535;28;20416;-70
2022/01/25 07:47:01;;;;;;;24.60;15.00;;;;;;;;;;5072708;28;20414;-70
2022/01/25 07:49:27;;;;;;;24.90;14.97;;;;;;;;;;5072626;28;20485;-70
2022/01/25 07:51:53;;;;;;;24.13;14.60;;;;;;;;;;5075134;28;20405;-69
2022/01/25 07:54:20;;;;;;;26.80;14.67;;;;;;;;;;5076406;28;20810;-67
2022/01/25 07:56:46;;;;;;;25.67;15.17;;;;;;;;;;5058519;28;21038;-63
2022/01/25 07:59:13;;;;;;;28.70;15.90;;;;;;;;;;5076294;28;20413;-66
2022/01/25 08:01:39;;;;;;;27.50;15.30;;;;;;;;;;5076070;28;20859;-65
2022/01/25 08:04:05;;;;;;;27.93;16.20;;;;;;;;;;5076103;28;20398;-66
2022/01/25 08:06:31;;;;;;;25.80;15.50;;;;;;;;;;5076207;28;20924;-68
2022/01/25 08:08:58;;;;;;;26.47;15.60;;;;;;;;;;5076151;28;20401;-65
2022/01/25 08:11:24;;;;;;;25.77;16.00;;;;;;;;;;5076037;28;20831;-64
2022/01/25 08:13:52;;;;;;;31.30;15.10;;;;;;;;;;5076085;28;20409;-65
2022/01/25 08:16:18;;;;;;;25.63;16.03;;;;;;;;;;5076075;28;20468;-65
2022/01/25 08:18:44;;;;;;;26.20;15.20;;;;;;;;;;5076063;28;20579;-68
2022/01/25 08:21:10;;;;;;;30.70;16.20;;;;;;;;;;5075994;28;20414;-64
2022/01/25 08:23:36;;;;;;;27.07;15.80;;;;;;;;;;5075717;28;20406;-65
2022/01/25 08:26:03;;;;;;;27.50;16.37;;;;;;;;;;5075883;28;20907;-67
2022/01/25 08:28:30;;;;;;;31.30;17.27;;;;;;;;;;5075869;28;20445;-64
2022/01/25 08:30:56;;;;;;;32.43;16.00;;;;;;;;;;5075711;28;20456;-67
2022/01/25 08:33:22;;;;;;;27.83;14.70;;;;;;;;;;5075637;28;20431;-65
2022/01/25 08:35:48;;;;;;;24.53;15.27;;;;;;;;;;5075759;28;20469;-69
2022/01/25 08:38:15;;;;;;;28.63;15.73;;;;;;;;;;5075714;28;20405;-64
2022/01/25 08:40:41;;;;;;;26.10;16.13;;;;;;;;;;5075702;28;20402;-67
2022/01/25 08:43:07;;;;;;;27.27;15.73;;;;;;;;;;5075476;28;20490;-67
2022/01/25 08:45:33;;;;;;;31.13;15.13;;;;;;;;;;5075640;28;20406;-67
2022/01/25 08:47:59;;;;;;;25.73;14.80;;;;;;;;;;5075590;28;20410;-66
2022/01/25 08:50:25;;;;;;;24.47;15.60;;;;;;;;;;5075381;28;20445;-65
2022/01/25 08:52:51;;;;;;;29.10;14.83;;;;;;;;;;5075445;28;20539;-69
2022/01/25 08:55:17;;;;;;;26.80;15.87;;;;;;;;;;5075286;28;20456;-64
2022/01/25 08:57:43;;;;;;;29.90;15.80;;;;;;;;;;5075406;28;20541;-66
2022/01/25 09:00:11;;;;;;;28.90;17.17;;;;;;;;;;5075326;28;20973;-65
2022/01/25 09:02:37;;;;;;;30.67;17.10;;;;;;;;;;5074306;28;20473;-69
2022/01/25 09:05:04;;;;;;;26.70;16.33;;;;;;;;;;5075244;28;20405;-65
2022/01/25 09:07:30;;;;;;;25.60;15.67;;;;;;;;;;5075150;28;20410;-66
2022/01/25 09:09:56;;;;;;;27.73;15.00;;;;;;;;;;5075099;28;20402;-64
2022/01/25 09:12:22;;;;;;;29.40;16.33;;;;;;;;;;5056988;28;20427;-65
2022/01/25 09:14:48;;;;;;;30.23;15.80;;;;;;;;;;5074841;28;20500;-69
2022/01/25 09:17:14;;;;;;;25.53;15.20;;;;;;;;;;5074958;28;20436;-67
2022/01/25 09:19:41;;;;;;;28.00;15.00;;;;;;;;;;5074822;28;20389;-69
2022/01/25 09:22:07;;;;;;;24.03;14.10;;;;;;;;;;5074986;28;20410;-72
2022/01/25 09:24:34;;;;;;;21.73;14.50;;;;;;;;;;5074789;28;20402;-67
2022/01/25 09:27:02;;;;;;;24.53;15.53;;;;;;;;;;5074741;28;20512;-68
2022/01/25 09:29:28;;;;;;;27.90;16.90;;;;;;;;;;5074660;28;20452;-66
2022/01/25 09:31:54;;;;;;;28.10;15.70;;;;;;;;;;5074771;28;20390;-69
2022/01/25 09:34:23;;;;;;;26.50;15.13;;;;;;;;;;5074767;28;20412;-69
2022/01/25 09:36:49;;;;;;;29.80;17.20;;;;;;;;;;5074519;28;20425;-67
2022/01/25 09:39:15;;;;;;;29.53;17.23;;;;;;;;;;5074432;28;20398;-65
2022/01/25 09:41:41;;;;;;;28.83;15.90;;;;;;;;;;5074539;28;20509;-70
2022/01/25 09:44:07;;;;;;;27.47;16.60;;;;;;;;;;5074305;28;20406;-70
2022/01/25 09:46:33;;;;;;;26.40;16.53;;;;;;;;;;5074492;28;20497;-64
2022/01/25 09:48:59;;;;;;;31.40;17.37;;;;;;;;;;5074276;28;20406;-64
2022/01/25 09:51:26;;;;;;;35.40;18.77;;;;;;;;;;5074132;28;20425;-67
2022/01/25 09:53:52;;;;;;;32.53;19.00;;;;;;;;;;5074212;28;20403;-66
2022/01/25 09:56:18;;;;;;;36.00;21.10;;;;;;;;;;5074023;28;20527;-68
2022/01/25 09:58:44;;;;;;;45.07;22.20;;;;;;;;;;5074034;28;20792;-66
2022/01/25 10:01:11;;;;;;;38.70;21.80;;;;;;;;;;5073798;28;20506;-71
2022/01/25 10:03:39;;;;;;;34.87;20.77;;;;;;;;;;5073958;28;20402;-67
2022/01/25 10:06:17;;;;;;;37.00;22.10;;;;;;;;;;5056118;28;20433;-68
2022/01/25 10:08:44;;;;;;;42.37;23.33;;;;;;;;;;5073923;28;20401;-66
2022/01/25 10:11:14;;;;;;;41.20;22.10;;;;;;;;;;5073764;28;20405;-66
2022/01/25 10:13:42;;;;;;;39.17;23.20;;;;;;;;;;5073654;28;20399;-71
2022/01/25 10:16:10;;;;;;;42.70;23.77;;;;;;;;;;5073052;28;20995;-71
2022/01/25 10:18:37;;;;;;;42.80;24.40;;;;;;;;;;5073682;28;20420;-67
2022/01/25 10:21:03;;;;;;;41.47;22.37;;;;;;;;;;5055869;28;20414;-69
2022/01/25 10:23:31;;;;;;;39.63;21.97;;;;;;;;;;5073507;28;20768;-70
2022/01/25 10:26:00;;;;;;;35.70;21.60;;;;;;;;;;5073466;28;20410;-71
2022/01/25 10:28:30;;;;;;;41.80;22.20;;;;;;;;;;5073512;28;20774;-71
2022/01/25 10:30:58;;;;;;;40.00;22.77;;;;;;;;;;5073432;28;20916;-71
2022/01/25 10:33:31;;;;;;;36.93;21.10;;;;;;;;;;5055716;28;20414;-70
2022/01/25 10:35:59;;;;;;;33.17;20.10;;;;;;;;;;5073484;28;20463;-68
2022/01/25 10:38:27;;;;;;;41.43;21.77;;;;;;;;;;5073400;28;20410;-67
2022/01/25 10:40:55;;;;;;;32.40;20.10;;;;;;;;;;5073386;28;20409;-70
2022/01/25 10:43:22;;;;;;;31.90;20.10;;;;;;;;;;5073173;28;20412;-65
2022/01/25 10:46:03;;;;;;;35.80;21.50;;;;;;;;;;5073173;28;20412;-66
2022/01/25 10:48:29;;;;;;;35.47;19.10;;;;;;;;;;5073258;28;20896;-68
2022/01/25 10:51:06;;;;;;;36.17;19.83;;;;;;;;;;5073232;28;20402;-65
2022/01/25 10:53:32;;;;;;;32.80;19.37;;;;;;;;;;5073373;28;20405;-69
2022/01/25 10:56:02;;;;;;;41.83;20.47;;;;;;;;;;5073046;28;20477;-70
2022/01/25 10:58:29;;;;;;;28.77;17.93;;;;;;;;;;5073222;28;20405;-70
2022/01/25 11:00:55;;;;;;;37.13;21.10;;;;;;;;;;5073016;28;20441;-72
2022/01/25 11:03:29;;;;;;;30.83;18.27;;;;;;;;;;5073033;28;20410;-69
2022/01/25 11:05:55;;;;;;;42.87;20.53;;;;;;;;;;5073167;28;20522;-66
2022/01/25 11:08:23;;;;;;;36.80;19.87;;;;;;;;;;5073245;28;20413;-69
2022/01/25 11:11:00;;;;;;;32.77;19.80;;;;;;;;;;5072899;28;20417;-69
2022/01/25 11:15:55;;;;;;;36.63;19.63;;;;;;;;;;5073032;28;20477;-68
2022/01/25 11:18:21;;;;;;;32.73;21.40;;;;;;;;;;5072981;28;20469;-66
2022/01/25 11:20:49;;;;;;;32.83;19.60;;;;;;;;;;5072738;28;20970;-69
2022/01/25 11:23:16;;;;;;;34.90;20.37;;;;;;;;;;5072718;28;20742;-71
2022/01/25 11:25:43;;;;;;;38.40;21.40;;;;;;;;;;5073420;28;20487;-67
2022/01/25 11:28:09;;;;;;;43.50;20.90;;;;;;;;;;5076978;28;20887;-72
2022/01/25 11:30:38;;;;;;;35.30;20.90;;;;;;;;;;5076912;28;20425;-70
2022/01/25 11:33:05;;;;;;;39.30;21.30;;;;;;;;;;5077008;28;20467;-66
2022/01/25 11:35:31;;;;;;;31.43;19.43;;;;;;;;;;5076969;28;20822;-67
2022/01/25 11:37:57;;;;;;;32.00;19.80;;;;;;;;;;5076812;28;20418;-66
2022/01/25 11:40:26;;;;;;;32.40;20.50;;;;;;;;;;5076758;28;20418;-66
2022/01/25 11:42:57;;;;;;;34.33;20.67;;;;;;;;;;5076615;28;20421;-74
2022/01/25 11:45:25;;;;;;;36.77;21.07;;;;;;;;;;5076810;28;20407;-72
2022/01/25 11:47:52;;;;;;;40.77;22.67;;;;;;;;;;5076583;28;20458;-71
2022/01/25 11:50:18;;;;;;;35.83;20.90;;;;;;;;;;5076521;28;20907;-70
2022/01/25 11:52:56;;;;;;;38.63;22.27;;;;;;;;;;5076552;28;20897;-73
2022/01/25 11:55:34;;;;;;;43.30;22.70;;;;;;;;;;5076418;28;20537;-72
2022/01/25 11:58:00;;;;;;;35.97;22.43;;;;;;;;;;5076477;28;20398;-71
2022/01/25 12:00:37;;;;;;;38.20;21.30;;;;;;;;;;5076379;28;20407;-70
2022/01/25 12:03:18;;;;;;;36.70;21.57;;;;;;;;;;5076288;28;20756;-70
2022/01/25 12:05:56;;;;;;;35.17;21.70;;;;;;;;;;5058292;28;20459;-71
2022/01/25 12:08:37;;;;;;;36.77;22.07;;;;;;;;;;5076116;28;20911;-66
2022/01/25 12:11:23;;;;;;;39.07;23.23;;;;;;;;;;5076264;28;20519;-66
2022/01/25 12:14:09;;;;;;;34.20;20.53;;;;;;;;;;5076133;28;20433;-67
2022/01/25 12:16:43;;;;;;;37.13;22.30;;;;;;;;;;5058093;28;20460;-65
2022/01/25 12:19:09;;;;;;;38.90;23.40;;;;;;;;;;5076011;28;20408;-65
2022/01/25 12:21:52;;;;;;;38.50;22.27;;;;;;;;;;5075919;28;20433;-65
2022/01/25 12:24:37;;;;;;;41.90;23.13;;;;;;;;;;5057953;28;20426;-65
2022/01/25 12:27:27;;;;;;;43.10;23.50;;;;;;;;;;5075845;28;20764;-66
2022/01/25 12:30:07;;;;;;;41.07;23.73;;;;;;;;;;5075690;28;20897;-65
2022/01/25 12:32:35;;;;;;;44.60;23.50;;;;;;;;;;5075832;28;20903;-68
2022/01/25 12:35:11;;;;;;;42.03;22.93;;;;;;;;;;5057652;28;20938;-64
2022/01/25 12:37:48;;;;;;;44.73;23.90;;;;;;;;;;5074695;28;20406;-66
2022/01/25 12:40:28;;;;;;;42.80;23.80;;;;;;;;;;5057745;28;20428;-65
2022/01/25 12:42:55;;;;;;;42.43;23.93;;;;;;;;;;5075621;28;20440;-66
2022/01/25 12:45:22;;;;;;;42.90;24.60;;;;;;;;;;5075819;28;20516;-66
2022/01/25 12:47:52;;;;;;;42.67;22.47;;;;;;;;;;5075598;28;20456;-66
2022/01/25 12:50:18;;;;;;;44.47;23.70;;;;;;;;;;5075536;28;20405;-65
2022/01/25 12:52:45;;;;;;;37.77;21.47;;;;;;;;;;5075448;28;20402;-67
2022/01/25 12:55:12;;;;;;;37.90;21.53;;;;;;;;;;5075411;28;20548;-65
2022/01/25 12:57:38;;;;;;;37.87;21.97;;;;;;;;;;5075299;28;20901;-65
2022/01/25 13:00:05;;;;;;;37.60;23.03;;;;;;;;;;5075313;28;20466;-66
2022/01/25 13:02:31;;;;;;;39.83;23.70;;;;;;;;;;5075071;28;20466;-66
2022/01/25 13:04:57;;;;;;;36.37;20.17;;;;;;;;;;5075246;28;20416;-67
2022/01/25 13:07:23;;;;;;;35.60;20.37;;;;;;;;;;5075174;28;20412;-70
2022/01/25 13:09:54;;;;;;;34.30;20.47;;;;;;;;;;5075054;28;20955;-67
2022/01/25 13:12:29;;;;;;;37.50;21.07;;;;;;;;;;5075217;28;20427;-67
2022/01/25 13:15:26;;;;;;;35.00;20.90;;;;;;;;;;5075113;28;20452;-68
2022/01/25 13:17:50;;;;;;;35.53;21.53;;;;;;;;;;5074895;28;20924;-67
2022/01/25 13:20:21;;;;;;;36.93;20.37;;;;;;;;;;5075017;28;20418;-66
2022/01/25 13:22:47;;;;;;;34.67;20.53;;;;;;;;;;5074851;28;20387;-65
2022/01/25 13:25:24;;;;;;;35.97;19.50;;;;;;;;;;5074925;28;20617;-64
2022/01/25 13:27:53;;;;;;;35.30;20.70;;;;;;;;;;5074761;28;20898;-66
2022/01/25 13:30:42;;;;;;;42.20;21.73;;;;;;;;;;5074636;28;20427;-64
2022/01/25 13:33:17;;;;;;;37.47;20.57;;;;;;;;;;5074791;28;20394;-65
2022/01/25 13:35:49;;;;;;;36.20;20.10;;;;;;;;;;5074605;28;20464;-65
2022/01/25 13:38:18;;;;;;;42.63;20.10;;;;;;;;;;5074660;28;20495;-65
2022/01/25 13:41:02;;;;;;;39.37;22.20;;;;;;;;;;5074424;28;20464;-66
2022/01/25 13:45:57;;;;;;;40.40;21.43;;;;;;;;;;5074398;28;20430;-68
2022/01/25 13:48:24;;;;;;;38.60;20.63;;;;;;;;;;5074470;28;20405;-66
2022/01/25 13:50:58;;;;;;;40.00;22.90;;;;;;;;;;5056408;28;20920;-64
2022/01/25 13:53:25;;;;;;;36.03;20.50;;;;;;;;;;5074389;28;20437;-66
2022/01/25 13:55:52;;;;;;;38.07;21.40;;;;;;;;;;5074110;28;20476;-65
2022/01/25 13:58:31;;;;;;;39.87;22.50;;;;;;;;;;5074176;28;20405;-65
2022/01/25 14:00:58;;;;;;;39.37;22.23;;;;;;;;;;5073866;28;20472;-65
2022/01/25 14:03:26;;;;;;;42.97;22.10;;;;;;;;;;5073978;28;20418;-65
2022/01/25 14:05:52;;;;;;;40.13;22.20;;;;;;;;;;5074062;28;20410;-65
2022/01/25 14:08:31;;;;;;;44.53;23.17;;;;;;;;;;5073938;28;20433;-65
2022/01/25 14:11:00;;;;;;;51.97;23.50;;;;;;;;;;5073990;28;20723;-66
2022/01/25 14:22:11;;;;;;;44.80;23.00;;;;;;;;;;5073866;28;20973;-67
2022/01/25 14:24:37;;;;;;;41.43;21.97;;;;;;;;;;5073646;28;20896;-67
2022/01/25 14:27:24;;;;;;;41.03;23.17;;;;;;;;;;5073700;28;20398;-64
2022/01/25 14:29:53;;;;;;;46.40;23.37;;;;;;;;;;5055477;28;20912;-68
2022/01/25 14:32:28;;;;;;;41.60;21.70;;;;;;;;;;5073590;28;20402;-67
2022/01/25 14:35:02;;;;;;;44.40;23.07;;;;;;;;;;5073404;28;20461;-71
2022/01/25 14:37:28;;;;;;;35.10;18.97;;;;;;;;;;5073528;28;20400;-67
2022/01/25 14:40:01;;;;;;;45.00;21.20;;;;;;;;;;5073399;28;20460;-72
2022/01/25 14:42:29;;;;;;;39.83;23.63;;;;;;;;;;5073520;28;20417;-69
2022/01/25 14:45:00;;;;;;;45.40;21.83;;;;;;;;;;5073268;28;20409;-73
2022/01/25 14:47:34;;;;;;;43.43;21.10;;;;;;;;;;5073510;28;20915;-73
2022/01/25 14:50:01;;;;;;;39.70;22.70;;;;;;;;;;5055316;28;20771;-73
2022/01/25 14:52:27;;;;;;;42.63;21.97;;;;;;;;;;5073416;28;20722;-68
2022/01/25 14:54:53;;;;;;;44.20;21.80;;;;;;;;;;5073210;28;20766;-67
2022/01/25 14:57:25;;;;;;;48.40;23.10;;;;;;;;;;5073301;28;20440;-67
2022/01/25 14:59:51;;;;;;;53.33;23.33;;;;;;;;;;5073182;28;20414;-68
2022/01/25 15:02:17;;;;;;;45.30;22.70;;;;;;;;;;5080800;28;20490;-66
2022/01/25 15:04:44;;;;;;;48.07;22.70;;;;;;;;;;5093413;28;20405;-71
2022/01/25 15:07:10;;;;;;;46.97;23.37;;;;;;;;;;5093413;28;20450;-66
2022/01/25 15:09:37;;;;;;;46.17;22.07;;;;;;;;;;5092060;28;20437;-66
2022/01/25 15:12:04;;;;;;;44.77;22.67;;;;;;;;;;5093416;28;20470;-71
2022/01/25 15:14:49;;;;;;;47.83;22.50;;;;;;;;;;5091862;28;20474;-66
2022/01/25 15:17:15;;;;;;;47.05;24.40;;;;;;;;;;5092054;28;20884;-66
2022/01/25 15:19:41;;;;;;;43.13;22.90;;;;;;;;;;5091880;28;20674;-72
2022/01/25 15:22:08;;;;;;;47.20;23.23;;;;;;;;;;5093209;28;20408;-69
2022/01/25 15:24:34;;;;;;;52.40;23.23;;;;;;;;;;5093070;28;20454;-66
2022/01/25 15:27:06;;;;;;;52.60;25.33;;;;;;;;;;5093283;28;20433;-67
2022/01/25 15:29:32;;;;;;;48.77;23.10;;;;;;;;;;5091727;28;20917;-65
2022/01/25 15:31:58;;;;;;;46.67;22.50;;;;;;;;;;5093200;28;20408;-66
2022/01/25 15:34:25;;;;;;;49.90;22.70;;;;;;;;;;5093113;28;20861;-68
2022/01/25 15:36:51;;;;;;;49.67;23.07;;;;;;;;;;5092883;28;21043;-67
2022/01/25 15:39:17;;;;;;;50.77;24.30;;;;;;;;;;5093183;28;20431;-71
2022/01/25 15:41:46;;;;;;;51.40;23.83;;;;;;;;;;5093051;28;20964;-73
2022/01/25 15:44:12;;;;;;;53.30;24.73;;;;;;;;;;5092809;28;20167;-67
2022/01/25 15:49:14;;;;;;;55.65;24.98;;;;;;;;;;5093025;28;20414;-70
2022/01/25 15:51:43;;;;;;;53.13;25.08;;;;;;;;;;5092964;28;20182;-69
2022/01/25 15:54:09;;;;;;;55.72;22.13;;;;;;;;;;5091563;28;20182;-64
2022/01/25 15:56:36;;;;;;;49.58;24.20;;;;;;;;;;5092902;28;20213;-69
2022/01/25 15:59:02;;;;;;;52.17;23.08;;;;;;;;;;5092749;28;20169;-71
2022/01/25 16:01:28;;;;;;;58.15;23.42;;;;;;;;;;5084577;28;20220;-68
2022/01/25 16:03:54;;;;;;;49.83;24.02;;;;;;;;;;5072448;28;20296;-67
2022/01/25 16:06:21;;;;;;;56.00;23.75;;;;;;;;;;5072636;28;20184;-68
2022/01/25 16:08:47;;;;;;;59.47;24.67;;;;;;;;;;5072454;28;20191;-70
2022/01/25 16:11:14;;;;;;;54.25;24.65;;;;;;;;;;5072498;28;20638;-64
2022/01/25 16:13:44;;;;;;;47.17;22.33;;;;;;;;;;5074497;28;20238;-66
2022/01/25 16:16:10;;;;;;;53.17;24.25;;;;;;;;;;5076128;28;20208;-67
2022/01/25 16:18:38;;;;;;;62.28;26.45;;;;;;;;;;5076143;28;20708;-68
2022/01/25 16:21:04;;;;;;;56.70;24.80;;;;;;;;;;5076073;28;20172;-66
2022/01/25 16:23:30;;;;;;;58.83;26.80;;;;;;;;;;5075900;28;20975;-67
2022/01/25 16:25:56;;;;;;;53.20;24.60;;;;;;;;;;5076072;28;20659;-70